sensor_id;sensor_type;location;lat;lon;timestamp;temperature;humidity
8591;DHT22;4333;48.322;14.340;2024-03-22T00:00:08;10.00;99.90
8591;DHT22;4333;48.322;14.340;2024-03-22T00:02:37;10.00;99.90
8591;DHT22;4333;48.322;14.340;2024-03-22T00:05:06;10.00;99.90
8591;DHT22;4333;48.322;14.340;2024-03-22T00:07:32;10.00;99.90
8591;DHT22;4333;48.322;14.340;2024-03-22T00:09:58;10.00;99.90
8591;DHT22;4333;48.322;14.340;2024-03-22T00:12:25;10.00;99.90
8591;DHT22;4333;48.322;14.340;2024-03-22T00:14:51;10.00;99.90
8591;DHT22;4333;48.322;14.340;2024-03-22T00:17:20;10.00;99.90
8591;DHT22;4333;48.322;14.340;2024-03-22T00:19:46;9.90;99.90
8591;DHT22;4333;48.322;14.340;2024-03-22T00:22:12;10.00;99.90
8591;DHT22;4333;48.322;14.340;2024-03-22T00:24:41;10.00;99.90
8591;DHT22;4333;48.322;14.340;2024-03-22T00:27:09;10.00;99.90
8591;DHT22;4333;48.322;14.340;2024-03-22T00:29:39;10.00;99.90
8591;DHT22;4333;48.322;14.340;2024-03-22T00:32:09;9.90;99.90
8591;DHT22;4333;48.322;14.340;2024-03-22T00:34:35;10.00;99.90
8591;DHT22;4333;48.322;14.340;2024-03-22T00:37:01;10.00;99.90
8591;DHT22;4333;48.322;14.340;2024-03-22T00:39:27;10.00;99.90
8591;DHT22;4333;48.322;14.340;2024-03-22T00:41:53;10.00;99.90
8591;DHT22;4333;48.322;14.340;2024-03-22T00:44:19;10.00;99.90
8591;DHT22;4333;48.322;14.340;2024-03-22T00:46:45;10.00;99.90
8591;DHT22;4333;48.322;14.340;2024-03-22T00:49:14;10.00;99.90
8591;DHT22;4333;48.322;14.340;2024-03-22T00:51:40;10.00;99.90
8591;DHT22;4333;48.322;14.340;2024-03-22T00:54:08;10.00;99.90
8591;DHT22;4333;48.322;14.340;2024-03-22T00:56:34;10.00;99.90
8591;DHT22;4333;48.322;14.340;2024-03-22T00:59:00;10.00;99.90
8591;DHT22;4333;48.322;14.340;2024-03-22T01:01:26;10.00;99.90
8591;DHT22;4333;48.322;14.340;2024-03-22T01:03:56;9.90;99.90
8591;DHT22;4333;48.322;14.340;2024-03-22T01:06:22;9.80;99.90
8591;DHT22;4333;48.322;14.340;2024-03-22T01:08:50;9.80;99.90
8591;DHT22;4333;48.322;14.340;2024-03-22T01:11:18;9.80;99.90
8591;DHT22;4333;48.322;14.340;2024-03-22T01:13:46;9.60;99.90
8591;DHT22;4333;48.322;14.340;2024-03-22T01:16:20;9.50;99.90
8591;DHT22;4333;48.322;14.340;2024-03-22T01:18:46;9.40;99.90
8591;DHT22;4333;48.322;14.340;2024-03-22T01:21:14;9.40;99.90
8591;DHT22;4333;48.322;14.340;2024-03-22T01:23:40;9.40;99.90
8591;DHT22;4333;48.322;14.340;2024-03-22T01:26:06;9.30;99.90
8591;DHT22;4333;48.322;14.340;2024-03-22T01:28:37;9.30;99.90
8591;DHT22;4333;48.322;14.340;2024-03-22T01:31:03;9.20;99.90
8591;DHT22;4333;48.322;14.340;2024-03-22T01:33:29;9.20;99.90
8591;DHT22;4333;48.322;14.340;2024-03-22T01:35:55;9.10;99.90
8591;DHT22;4333;48.322;14.340;2024-03-22T01:38:24;9.10;99.90
8591;DHT22;4333;48.322;14.340;2024-03-22T01:40:50;9.10;99.90
8591;DHT22;4333;48.322;14.340;2024-03-22T01:43:20;9.10;99.90
8591;DHT22;4333;48.322;14.340;2024-03-22T01:45:49;9.10;99.90
8591;DHT22;4333;48.322;14.340;2024-03-22T01:48:15;9.10;99.90
8591;DHT22;4333;48.322;14.340;2024-03-22T01:50:41;9.00;99.90
8591;DHT22;4333;48.322;14.340;2024-03-22T01:53:09;8.80;99.90
8591;DHT22;4333;48.322;14.340;2024-03-22T01:55:38;8.70;99.90
8591;DHT22;4333;48.322;14.340;2024-03-22T01:58:04;8.70;99.90
8591;DHT22;4333;48.322;14.340;2024-03-22T02:00:31;8.70;99.90
8591;DHT22;4333;48.322;14.340;2024-03-22T02:02:57;8.60;99.90
8591;DHT22;4333;48.322;14.340;2024-03-22T02:05:23;8.50;99.90
8591;DHT22;4333;48.322;14.340;2024-03-22T02:07:50;8.30;99.90
8591;DHT22;4333;48.322;14.340;2024-03-22T02:10:16;8.10;99.90
8591;DHT22;4333;48.322;14.340;2024-03-22T02:12:45;8.10;99.90
8591;DHT22;4333;48.322;14.340;2024-03-22T02:15:11;8.20;99.90
8591;DHT22;4333;48.322;14.340;2024-03-22T02:17:37;8.10;99.90
8591;DHT22;4333;48.322;14.340;2024-03-22T02:20:03;8.10;99.90
8591;DHT22;4333;48.322;14.340;2024-03-22T02:22:33;8.00;99.90
8591;DHT22;4333;48.322;14.340;2024-03-22T02:25:01;7.90;99.90
8591;DHT22;4333;48.322;14.340;2024-03-22T02:27:29;7.80;99.90
8591;DHT22;4333;48.322;14.340;2024-03-22T02:29:58;7.80;99.90
8591;DHT22;4333;48.322;14.340;2024-03-22T02:32:33;7.80;99.90
8591;DHT22;4333;48.322;14.340;2024-03-22T02:35:02;7.70;99.90
8591;DHT22;4333;48.322;14.340;2024-03-22T02:37:28;7.70;99.90
8591;DHT22;4333;48.322;14.340;2024-03-22T02:39:54;7.70;99.90
8591;DHT22;4333;48.322;14.340;2024-03-22T02:42:23;7.70;99.90
8591;DHT22;4333;48.322;14.340;2024-03-22T02:44:51;7.70;99.90
8591;DHT22;4333;48.322;14.340;2024-03-22T02:47:18;7.70;99.90
8591;DHT22;4333;48.322;14.340;2024-03-22T02:49:51;7.70;99.90
8591;DHT22;4333;48.322;14.340;2024-03-22T02:52:17;7.70;99.90
8591;DHT22;4333;48.322;14.340;2024-03-22T02:54:43;7.70;99.90
8591;DHT22;4333;48.322;14.340;2024-03-22T02:57:09;7.70;99.90
8591;DHT22;4333;48.322;14.340;2024-03-22T02:59:40;7.70;99.90
8591;DHT22;4333;48.322;14.340;2024-03-22T03:02:08;7.60;99.90
8591;DHT22;4333;48.322;14.340;2024-03-22T03:04:34;7.50;99.90
8591;DHT22;4333;48.322;14.340;2024-03-22T03:07:00;7.50;99.90
8591;DHT22;4333;48.322;14.340;2024-03-22T03:09:31;7.40;99.90
8591;DHT22;4333;48.322;14.340;2024-03-22T03:11:57;7.60;99.90
8591;DHT22;4333;48.322;14.340;2024-03-22T03:14:23;7.60;99.90
8591;DHT22;4333;48.322;14.340;2024-03-22T03:16:49;7.50;99.90
8591;DHT22;4333;48.322;14.340;2024-03-22T03:19:15;7.40;99.90
8591;DHT22;4333;48.322;14.340;2024-03-22T03:21:41;7.30;99.90
8591;DHT22;4333;48.322;14.340;2024-03-22T03:24:07;7.30;99.90
8591;DHT22;4333;48.322;14.340;2024-03-22T03:26:36;7.30;99.90
8591;DHT22;4333;48.322;14.340;2024-03-22T03:29:02;7.30;99.90
8591;DHT22;4333;48.322;14.340;2024-03-22T03:31:30;7.30;99.90
8591;DHT22;4333;48.322;14.340;2024-03-22T03:33:56;7.30;99.90
8591;DHT22;4333;48.322;14.340;2024-03-22T03:36:24;7.30;99.90
8591;DHT22;4333;48.322;14.340;2024-03-22T03:38:53;7.30;99.90
8591;DHT22;4333;48.322;14.340;2024-03-22T03:41:19;7.30;99.90
8591;DHT22;4333;48.322;14.340;2024-03-22T03:43:48;7.40;99.90
8591;DHT22;4333;48.322;14.340;2024-03-22T03:46:21;7.40;99.90
8591;DHT22;4333;48.322;14.340;2024-03-22T03:48:47;7.30;99.90
8591;DHT22;4333;48.322;14.340;2024-03-22T03:51:13;7.40;99.90
8591;DHT22;4333;48.322;14.340;2024-03-22T03:53:42;7.40;99.90
8591;DHT22;4333;48.322;14.340;2024-03-22T03:56:13;7.40;99.90
8591;DHT22;4333;48.322;14.340;2024-03-22T03:58:39;7.40;99.90
8591;DHT22;4333;48.322;14.340;2024-03-22T04:01:06;7.40;99.90
8591;DHT22;4333;48.322;14.340;2024-03-22T04:03:35;7.40;99.90
8591;DHT22;4333;48.322;14.340;2024-03-22T04:06:04;7.30;99.90
8591;DHT22;4333;48.322;14.340;2024-03-22T04:08:29;7.30;99.90
8591;DHT22;4333;48.322;14.340;2024-03-22T04:11:00;7.30;99.90
8591;DHT22;4333;48.322;14.340;2024-03-22T04:13:28;7.30;99.90
8591;DHT22;4333;48.322;14.340;2024-03-22T04:15:54;7.30;99.90
8591;DHT22;4333;48.322;14.340;2024-03-22T04:18:26;7.30;99.90
8591;DHT22;4333;48.322;14.340;2024-03-22T04:20:57;7.40;99.90
8591;DHT22;4333;48.322;14.340;2024-03-22T04:23:23;7.30;99.90
8591;DHT22;4333;48.322;14.340;2024-03-22T04:26:00;7.40;99.90
8591;DHT22;4333;48.322;14.340;2024-03-22T04:28:29;7.40;99.90
8591;DHT22;4333;48.322;14.340;2024-03-22T04:31:03;7.40;99.90
8591;DHT22;4333;48.322;14.340;2024-03-22T04:33:30;7.40;99.90
8591;DHT22;4333;48.322;14.340;2024-03-22T04:36:00;7.40;99.90
8591;DHT22;4333;48.322;14.340;2024-03-22T04:38:29;7.40;99.90
8591;DHT22;4333;48.322;14.340;2024-03-22T04:40:56;7.30;99.90
8591;DHT22;4333;48.322;14.340;2024-03-22T04:43:25;7.30;99.90
8591;DHT22;4333;48.322;14.340;2024-03-22T04:45:51;7.40;99.90
8591;DHT22;4333;48.322;14.340;2024-03-22T04:48:22;7.30;99.90
8591;DHT22;4333;48.322;14.340;2024-03-22T04:50:51;7.30;99.90
8591;DHT22;4333;48.322;14.340;2024-03-22T04:53:18;7.40;99.90
8591;DHT22;4333;48.322;14.340;2024-03-22T04:55:51;7.40;99.90
8591;DHT22;4333;48.322;14.340;2024-03-22T04:58:20;7.50;99.90
8591;DHT22;4333;48.322;14.340;2024-03-22T05:00:48;7.50;99.90
8591;DHT22;4333;48.322;14.340;2024-03-22T05:03:14;7.70;99.90
8591;DHT22;4333;48.322;14.340;2024-03-22T05:05:41;7.70;99.90
8591;DHT22;4333;48.322;14.340;2024-03-22T05:08:08;7.70;99.90
8591;DHT22;4333;48.322;14.340;2024-03-22T05:10:34;7.80;99.90
8591;DHT22;4333;48.322;14.340;2024-03-22T05:13:03;7.90;99.90
8591;DHT22;4333;48.322;14.340;2024-03-22T05:15:31;7.90;99.90
8591;DHT22;4333;48.322;14.340;2024-03-22T05:17:58;8.00;99.90
8591;DHT22;4333;48.322;14.340;2024-03-22T05:20:32;8.00;99.90
8591;DHT22;4333;48.322;14.340;2024-03-22T05:23:10;8.00;99.90
8591;DHT22;4333;48.322;14.340;2024-03-22T05:25:51;8.00;99.90
8591;DHT22;4333;48.322;14.340;2024-03-22T05:28:23;8.00;99.90
8591;DHT22;4333;48.322;14.340;2024-03-22T05:31:16;8.00;99.90
8591;DHT22;4333;48.322;14.340;2024-03-22T05:34:03;8.00;99.90
8591;DHT22;4333;48.322;14.340;2024-03-22T05:37:30;8.00;99.90
8591;DHT22;4333;48.322;14.340;2024-03-22T05:43:48;8.00;99.90
8591;DHT22;4333;48.322;14.340;2024-03-22T05:46:31;8.00;99.90
8591;DHT22;4333;48.322;14.340;2024-03-22T05:49:16;8.00;99.90
8591;DHT22;4333;48.322;14.340;2024-03-22T05:52:44;8.10;99.90
8591;DHT22;4333;48.322;14.340;2024-03-22T05:55:32;8.30;99.90
8591;DHT22;4333;48.322;14.340;2024-03-22T06:09:53;8.50;99.90
8591;DHT22;4333;48.322;14.340;2024-03-22T06:12:22;8.50;99.90
8591;DHT22;4333;48.322;14.340;2024-03-22T06:14:50;8.60;99.90
8591;DHT22;4333;48.322;14.340;2024-03-22T06:17:27;8.50;99.90
8591;DHT22;4333;48.322;14.340;2024-03-22T06:19:56;8.60;99.90
8591;DHT22;4333;48.322;14.340;2024-03-22T06:22:22;8.70;99.90
8591;DHT22;4333;48.322;14.340;2024-03-22T06:25:02;8.80;99.90
8591;DHT22;4333;48.322;14.340;2024-03-22T06:28:19;8.90;99.90
8591;DHT22;4333;48.322;14.340;2024-03-22T06:34:18;9.10;99.90
8591;DHT22;4333;48.322;14.340;2024-03-22T06:37:07;9.10;99.90
8591;DHT22;4333;48.322;14.340;2024-03-22T06:43:14;9.10;99.90
8591;DHT22;4333;48.322;14.340;2024-03-22T06:45:40;9.10;99.90
8591;DHT22;4333;48.322;14.340;2024-03-22T06:48:28;9.10;99.90
8591;DHT22;4333;48.322;14.340;2024-03-22T06:53:34;9.10;99.90
8591;DHT22;4333;48.322;14.340;2024-03-22T06:56:17;9.10;99.90
8591;DHT22;4333;48.322;14.340;2024-03-22T06:59:02;9.10;99.90
8591;DHT22;4333;48.322;14.340;2024-03-22T07:01:33;9.10;99.90
8591;DHT22;4333;48.322;14.340;2024-03-22T07:04:35;9.20;99.90
8591;DHT22;4333;48.322;14.340;2024-03-22T07:07:37;9.20;99.90
8591;DHT22;4333;48.322;14.340;2024-03-22T07:10:04;9.30;99.90
8591;DHT22;4333;48.322;14.340;2024-03-22T07:12:32;9.30;99.90
8591;DHT22;4333;48.322;14.340;2024-03-22T07:15:30;9.40;99.90
8591;DHT22;4333;48.322;14.340;2024-03-22T07:18:02;9.50;99.90
8591;DHT22;4333;48.322;14.340;2024-03-22T07:20:33;9.40;99.90
8591;DHT22;4333;48.322;14.340;2024-03-22T07:23:07;9.40;99.90
8591;DHT22;4333;48.322;14.340;2024-03-22T07:25:39;9.40;99.90
8591;DHT22;4333;48.322;14.340;2024-03-22T07:28:10;9.40;99.90
8591;DHT22;4333;48.322;14.340;2024-03-22T07:30:43;9.40;99.90
8591;DHT22;4333;48.322;14.340;2024-03-22T07:33:15;9.50;99.90
8591;DHT22;4333;48.322;14.340;2024-03-22T07:35:44;9.60;99.90
8591;DHT22;4333;48.322;14.340;2024-03-22T07:38:13;9.70;99.90
8591;DHT22;4333;48.322;14.340;2024-03-22T07:40:40;9.70;99.90
8591;DHT22;4333;48.322;14.340;2024-03-22T07:43:11;9.80;99.90
8591;DHT22;4333;48.322;14.340;2024-03-22T07:45:55;10.00;99.90
8591;DHT22;4333;48.322;14.340;2024-03-22T07:48:24;10.20;99.90
8591;DHT22;4333;48.322;14.340;2024-03-22T07:51:02;10.10;99.90
8591;DHT22;4333;48.322;14.340;2024-03-22T07:53:30;10.00;99.90
8591;DHT22;4333;48.322;14.340;2024-03-22T07:59:01;10.10;99.90
8591;DHT22;4333;48.322;14.340;2024-03-22T08:01:30;10.30;99.90
8591;DHT22;4333;48.322;14.340;2024-03-22T08:04:02;10.50;99.90
8591;DHT22;4333;48.322;14.340;2024-03-22T08:06:38;10.50;99.90
8591;DHT22;4333;48.322;14.340;2024-03-22T08:09:08;10.50;99.90
8591;DHT22;4333;48.322;14.340;2024-03-22T08:14:53;10.90;99.90
8591;DHT22;4333;48.322;14.340;2024-03-22T08:17:19;11.20;99.90
8591;DHT22;4333;48.322;14.340;2024-03-22T08:20:14;11.70;99.90
8591;DHT22;4333;48.322;14.340;2024-03-22T08:23:22;11.70;92.90
8591;DHT22;4333;48.322;14.340;2024-03-22T08:26:08;11.90;91.50
8591;DHT22;4333;48.322;14.340;2024-03-22T08:32:02;12.70;71.90
8591;DHT22;4333;48.322;14.340;2024-03-22T08:34:41;13.40;56.10
8591;DHT22;4333;48.322;14.340;2024-03-22T08:37:10;13.70;50.10
8591;DHT22;4333;48.322;14.340;2024-03-22T08:39:40;14.90;40.10
8591;DHT22;4333;48.322;14.340;2024-03-22T08:42:11;15.90;30.60
8591;DHT22;4333;48.322;14.340;2024-03-22T08:44:37;16.70;19.50
8591;DHT22;4333;48.322;14.340;2024-03-22T08:47:06;17.30;4.00
8591;DHT22;4333;48.322;14.340;2024-03-22T08:49:35;17.30;1.00
8591;DHT22;4333;48.322;14.340;2024-03-22T08:52:04;15.90;1.00
8591;DHT22;4333;48.322;14.340;2024-03-22T08:54:30;16.40;1.00
8591;DHT22;4333;48.322;14.340;2024-03-22T08:56:56;17.00;1.00
8591;DHT22;4333;48.322;14.340;2024-03-22T08:59:22;17.20;1.00
8591;DHT22;4333;48.322;14.340;2024-03-22T09:01:50;16.40;1.00
8591;DHT22;4333;48.322;14.340;2024-03-22T09:04:21;16.00;1.00
8591;DHT22;4333;48.322;14.340;2024-03-22T09:06:50;15.50;1.00
8591;DHT22;4333;48.322;14.340;2024-03-22T09:09:32;15.40;1.00
8591;DHT22;4333;48.322;14.340;2024-03-22T09:11:58;14.80;1.60
8591;DHT22;4333;48.322;14.340;2024-03-22T09:14:41;14.10;13.30
8591;DHT22;4333;48.322;14.340;2024-03-22T09:17:43;13.40;25.90
8591;DHT22;4333;48.322;14.340;2024-03-22T09:20:15;13.10;33.40
8591;DHT22;4333;48.322;14.340;2024-03-22T09:22:53;13.00;36.80
8591;DHT22;4333;48.322;14.340;2024-03-22T09:25:27;13.20;40.00
8591;DHT22;4333;48.322;14.340;2024-03-22T09:28:05;13.40;38.30
8591;DHT22;4333;48.322;14.340;2024-03-22T09:30:43;13.30;39.50
8591;DHT22;4333;48.322;14.340;2024-03-22T09:33:12;13.40;35.00
8591;DHT22;4333;48.322;14.340;2024-03-22T09:35:49;13.50;34.50
8591;DHT22;4333;48.322;14.340;2024-03-22T09:38:15;13.80;32.70
8591;DHT22;4333;48.322;14.340;2024-03-22T09:40:46;13.80;27.40
8591;DHT22;4333;48.322;14.340;2024-03-22T09:43:12;13.90;27.60
8591;DHT22;4333;48.322;14.340;2024-03-22T09:45:47;14.00;30.00
8591;DHT22;4333;48.322;14.340;2024-03-22T09:48:21;14.60;23.60
8591;DHT22;4333;48.322;14.340;2024-03-22T09:50:48;14.60;18.60
8591;DHT22;4333;48.322;14.340;2024-03-22T09:53:18;14.50;17.10
8591;DHT22;4333;48.322;14.340;2024-03-22T09:55:48;14.50;19.10
8591;DHT22;4333;48.322;14.340;2024-03-22T09:58:17;14.30;15.70
8591;DHT22;4333;48.322;14.340;2024-03-22T10:00:45;14.10;17.40
8591;DHT22;4333;48.322;14.340;2024-03-22T10:03:11;14.40;21.00
8591;DHT22;4333;48.322;14.340;2024-03-22T10:05:37;14.50;13.50
8591;DHT22;4333;48.322;14.340;2024-03-22T10:08:04;14.50;9.80
8591;DHT22;4333;48.322;14.340;2024-03-22T10:10:33;14.60;10.00
8591;DHT22;4333;48.322;14.340;2024-03-22T10:13:03;14.80;9.90
8591;DHT22;4333;48.322;14.340;2024-03-22T10:15:30;15.20;6.70
8591;DHT22;4333;48.322;14.340;2024-03-22T10:17:57;15.50;1.80
8591;DHT22;4333;48.322;14.340;2024-03-22T10:20:25;15.30;1.00
8591;DHT22;4333;48.322;14.340;2024-03-22T10:23:30;15.30;1.00
8591;DHT22;4333;48.322;14.340;2024-03-22T10:26:19;15.60;1.00
8591;DHT22;4333;48.322;14.340;2024-03-22T10:28:45;16.20;1.00
8591;DHT22;4333;48.322;14.340;2024-03-22T10:33:44;15.90;1.00
8591;DHT22;4333;48.322;14.340;2024-03-22T10:39:18;16.30;1.00
8591;DHT22;4333;48.322;14.340;2024-03-22T10:41:51;16.90;1.00
8591;DHT22;4333;48.322;14.340;2024-03-22T10:44:29;16.80;1.00
8591;DHT22;4333;48.322;14.340;2024-03-22T10:46:56;17.30;1.00
8591;DHT22;4333;48.322;14.340;2024-03-22T10:49:32;17.60;1.00
8591;DHT22;4333;48.322;14.340;2024-03-22T10:52:06;17.90;1.00
8591;DHT22;4333;48.322;14.340;2024-03-22T10:54:55;18.00;1.00
8591;DHT22;4333;48.322;14.340;2024-03-22T10:57:36;17.50;1.00
8591;DHT22;4333;48.322;14.340;2024-03-22T11:00:13;17.10;1.00
8591;DHT22;4333;48.322;14.340;2024-03-22T11:03:01;17.60;1.00
8591;DHT22;4333;48.322;14.340;2024-03-22T11:05:59;16.90;1.00
8591;DHT22;4333;48.322;14.340;2024-03-22T11:09:03;16.80;1.00
8591;DHT22;4333;48.322;14.340;2024-03-22T11:15:22;17.20;1.00
8591;DHT22;4333;48.322;14.340;2024-03-22T11:17:54;17.80;1.00
8591;DHT22;4333;48.322;14.340;2024-03-22T11:20:26;17.90;1.00
8591;DHT22;4333;48.322;14.340;2024-03-22T11:22:54;18.20;1.00
8591;DHT22;4333;48.322;14.340;2024-03-22T11:25:25;17.30;1.00
8591;DHT22;4333;48.322;14.340;2024-03-22T11:27:54;16.50;1.00
8591;DHT22;4333;48.322;14.340;2024-03-22T11:30:31;16.90;1.00
8591;DHT22;4333;48.322;14.340;2024-03-22T11:33:00;17.30;1.00
8591;DHT22;4333;48.322;14.340;2024-03-22T11:35:37;17.40;1.00
8591;DHT22;4333;48.322;14.340;2024-03-22T11:38:10;17.60;1.00
8591;DHT22;4333;48.322;14.340;2024-03-22T11:40:41;17.80;1.00
8591;DHT22;4333;48.322;14.340;2024-03-22T11:43:15;18.10;1.00
8591;DHT22;4333;48.322;14.340;2024-03-22T11:45:50;18.20;1.00
8591;DHT22;4333;48.322;14.340;2024-03-22T11:48:18;18.60;1.00
8591;DHT22;4333;48.322;14.340;2024-03-22T11:50:49;18.90;1.00
8591;DHT22;4333;48.322;14.340;2024-03-22T11:53:26;18.30;1.00
8591;DHT22;4333;48.322;14.340;2024-03-22T11:56:07;18.80;1.00
8591;DHT22;4333;48.322;14.340;2024-03-22T11:58:41;18.60;1.00
8591;DHT22;4333;48.322;14.340;2024-03-22T12:01:18;18.00;1.00
8591;DHT22;4333;48.322;14.340;2024-03-22T12:04:01;17.90;1.00
8591;DHT22;4333;48.322;14.340;2024-03-22T12:06:34;17.70;1.00
8591;DHT22;4333;48.322;14.340;2024-03-22T12:09:37;17.30;1.00
8591;DHT22;4333;48.322;14.340;2024-03-22T12:12:06;18.00;1.00
8591;DHT22;4333;48.322;14.340;2024-03-22T12:14:34;18.40;1.00
8591;DHT22;4333;48.322;14.340;2024-03-22T12:17:13;17.50;1.00
8591;DHT22;4333;48.322;14.340;2024-03-22T12:19:40;17.50;1.00
8591;DHT22;4333;48.322;14.340;2024-03-22T12:22:09;17.20;1.00
8591;DHT22;4333;48.322;14.340;2024-03-22T12:24:51;17.60;1.00
8591;DHT22;4333;48.322;14.340;2024-03-22T12:27:39;17.80;1.00
8591;DHT22;4333;48.322;14.340;2024-03-22T12:30:10;18.20;1.00
8591;DHT22;4333;48.322;14.340;2024-03-22T12:32:45;17.90;1.00
8591;DHT22;4333;48.322;14.340;2024-03-22T12:35:11;17.60;1.00
8591;DHT22;4333;48.322;14.340;2024-03-22T12:37:44;17.90;1.00
8591;DHT22;4333;48.322;14.340;2024-03-22T12:40:18;17.70;1.00
8591;DHT22;4333;48.322;14.340;2024-03-22T12:42:48;17.60;1.00
8591;DHT22;4333;48.322;14.340;2024-03-22T12:45:20;17.10;1.00
8591;DHT22;4333;48.322;14.340;2024-03-22T12:47:54;16.90;1.00
8591;DHT22;4333;48.322;14.340;2024-03-22T12:50:28;17.30;1.00
8591;DHT22;4333;48.322;14.340;2024-03-22T12:53:02;18.00;1.00
8591;DHT22;4333;48.322;14.340;2024-03-22T12:56:09;18.10;1.00
8591;DHT22;4333;48.322;14.340;2024-03-22T12:58:44;18.20;1.00
8591;DHT22;4333;48.322;14.340;2024-03-22T13:01:10;18.50;1.00
8591;DHT22;4333;48.322;14.340;2024-03-22T13:06:24;17.70;1.00
8591;DHT22;4333;48.322;14.340;2024-03-22T13:08:50;17.80;1.00
8591;DHT22;4333;48.322;14.340;2024-03-22T13:11:16;18.20;1.00
8591;DHT22;4333;48.322;14.340;2024-03-22T13:13:43;18.30;1.00
8591;DHT22;4333;48.322;14.340;2024-03-22T13:16:09;18.50;1.00
8591;DHT22;4333;48.322;14.340;2024-03-22T13:18:37;18.80;1.00
8591;DHT22;4333;48.322;14.340;2024-03-22T13:21:03;19.00;1.00
8591;DHT22;4333;48.322;14.340;2024-03-22T13:23:30;18.70;1.00
8591;DHT22;4333;48.322;14.340;2024-03-22T13:25:56;18.50;1.00
8591;DHT22;4333;48.322;14.340;2024-03-22T13:28:24;18.40;1.00
8591;DHT22;4333;48.322;14.340;2024-03-22T13:31:00;18.60;1.00
8591;DHT22;4333;48.322;14.340;2024-03-22T13:33:29;18.60;1.00
8591;DHT22;4333;48.322;14.340;2024-03-22T13:35:58;18.50;1.00
8591;DHT22;4333;48.322;14.340;2024-03-22T13:38:26;18.40;1.00
8591;DHT22;4333;48.322;14.340;2024-03-22T13:40:56;18.30;1.00
8591;DHT22;4333;48.322;14.340;2024-03-22T13:43:23;18.50;1.00
8591;DHT22;4333;48.322;14.340;2024-03-22T13:45:51;18.50;1.00
8591;DHT22;4333;48.322;14.340;2024-03-22T13:48:22;18.20;1.00
8591;DHT22;4333;48.322;14.340;2024-03-22T13:50:55;18.10;1.00
8591;DHT22;4333;48.322;14.340;2024-03-22T13:53:23;18.10;1.00
8591;DHT22;4333;48.322;14.340;2024-03-22T13:55:54;18.00;1.00
8591;DHT22;4333;48.322;14.340;2024-03-22T13:58:23;18.30;1.00
8591;DHT22;4333;48.322;14.340;2024-03-22T14:00:53;18.50;1.00
8591;DHT22;4333;48.322;14.340;2024-03-22T14:03:18;18.50;1.00
8591;DHT22;4333;48.322;14.340;2024-03-22T14:05:44;18.70;1.00
8591;DHT22;4333;48.322;14.340;2024-03-22T14:08:10;18.60;1.00
8591;DHT22;4333;48.322;14.340;2024-03-22T14:10:37;18.50;1.00
8591;DHT22;4333;48.322;14.340;2024-03-22T14:13:03;18.50;1.00
8591;DHT22;4333;48.322;14.340;2024-03-22T14:15:29;18.50;1.00
8591;DHT22;4333;48.322;14.340;2024-03-22T14:17:57;18.40;1.00
8591;DHT22;4333;48.322;14.340;2024-03-22T14:20:26;18.60;1.00
8591;DHT22;4333;48.322;14.340;2024-03-22T14:22:52;18.60;1.00
8591;DHT22;4333;48.322;14.340;2024-03-22T14:25:17;18.50;1.00
8591;DHT22;4333;48.322;14.340;2024-03-22T14:27:43;18.60;1.00
8591;DHT22;4333;48.322;14.340;2024-03-22T14:30:12;18.40;1.00
8591;DHT22;4333;48.322;14.340;2024-03-22T14:32:39;18.40;1.00
8591;DHT22;4333;48.322;14.340;2024-03-22T14:35:10;18.40;1.00
8591;DHT22;4333;48.322;14.340;2024-03-22T14:37:37;18.40;1.00
8591;DHT22;4333;48.322;14.340;2024-03-22T14:40:05;18.20;1.00
8591;DHT22;4333;48.322;14.340;2024-03-22T14:42:36;18.10;1.00
8591;DHT22;4333;48.322;14.340;2024-03-22T14:45:02;18.30;1.00
8591;DHT22;4333;48.322;14.340;2024-03-22T14:47:29;18.30;1.00
8591;DHT22;4333;48.322;14.340;2024-03-22T14:49:55;18.10;1.00
8591;DHT22;4333;48.322;14.340;2024-03-22T14:52:20;18.20;1.00
8591;DHT22;4333;48.322;14.340;2024-03-22T14:54:47;17.90;1.00
8591;DHT22;4333;48.322;14.340;2024-03-22T14:57:13;17.90;1.00
8591;DHT22;4333;48.322;14.340;2024-03-22T14:59:41;18.10;1.00
8591;DHT22;4333;48.322;14.340;2024-03-22T15:02:07;18.40;1.00
8591;DHT22;4333;48.322;14.340;2024-03-22T15:04:36;18.60;1.00
8591;DHT22;4333;48.322;14.340;2024-03-22T15:07:02;18.70;1.00
8591;DHT22;4333;48.322;14.340;2024-03-22T15:09:30;18.50;1.00
8591;DHT22;4333;48.322;14.340;2024-03-22T15:11:57;18.50;1.00
8591;DHT22;4333;48.322;14.340;2024-03-22T15:14:28;18.50;1.00
8591;DHT22;4333;48.322;14.340;2024-03-22T15:16:57;18.60;1.00
8591;DHT22;4333;48.322;14.340;2024-03-22T15:19:23;18.70;1.00
8591;DHT22;4333;48.322;14.340;2024-03-22T15:21:49;18.80;1.00
8591;DHT22;4333;48.322;14.340;2024-03-22T15:24:18;18.80;1.00
8591;DHT22;4333;48.322;14.340;2024-03-22T15:26:45;18.80;1.00
8591;DHT22;4333;48.322;14.340;2024-03-22T15:29:14;18.70;1.00
8591;DHT22;4333;48.322;14.340;2024-03-22T15:31:39;18.10;1.00
8591;DHT22;4333;48.322;14.340;2024-03-22T15:34:06;17.90;1.00
8591;DHT22;4333;48.322;14.340;2024-03-22T15:36:31;17.90;1.00
8591;DHT22;4333;48.322;14.340;2024-03-22T15:38:57;17.70;1.00
8591;DHT22;4333;48.322;14.340;2024-03-22T15:41:26;17.80;1.00
8591;DHT22;4333;48.322;14.340;2024-03-22T15:43:52;17.90;1.00
8591;DHT22;4333;48.322;14.340;2024-03-22T15:46:18;17.60;1.00
8591;DHT22;4333;48.322;14.340;2024-03-22T15:48:47;17.40;1.00
8591;DHT22;4333;48.322;14.340;2024-03-22T15:51:17;17.50;1.00
8591;DHT22;4333;48.322;14.340;2024-03-22T15:53:42;17.60;1.00
8591;DHT22;4333;48.322;14.340;2024-03-22T15:56:13;17.60;1.00
8591;DHT22;4333;48.322;14.340;2024-03-22T15:58:39;17.70;1.00
8591;DHT22;4333;48.322;14.340;2024-03-22T16:01:07;17.60;1.00
8591;DHT22;4333;48.322;14.340;2024-03-22T16:03:33;17.50;1.00
8591;DHT22;4333;48.322;14.340;2024-03-22T16:05:59;17.60;1.00
8591;DHT22;4333;48.322;14.340;2024-03-22T16:08:27;17.50;1.00
8591;DHT22;4333;48.322;14.340;2024-03-22T16:10:54;17.30;1.00
8591;DHT22;4333;48.322;14.340;2024-03-22T16:13:20;17.30;1.00
8591;DHT22;4333;48.322;14.340;2024-03-22T16:15:46;17.30;1.00
8591;DHT22;4333;48.322;14.340;2024-03-22T16:18:13;17.30;1.00
8591;DHT22;4333;48.322;14.340;2024-03-22T16:20:39;17.30;1.00
8591;DHT22;4333;48.322;14.340;2024-03-22T16:23:05;17.20;1.00
8591;DHT22;4333;48.322;14.340;2024-03-22T16:25:40;17.20;1.00
8591;DHT22;4333;48.322;14.340;2024-03-22T16:28:05;17.10;1.00
8591;DHT22;4333;48.322;14.340;2024-03-22T16:30:31;17.10;1.00
8591;DHT22;4333;48.322;14.340;2024-03-22T16:33:00;17.00;1.00
8591;DHT22;4333;48.322;14.340;2024-03-22T16:35:26;17.00;1.00
8591;DHT22;4333;48.322;14.340;2024-03-22T16:37:54;16.90;1.00
8591;DHT22;4333;48.322;14.340;2024-03-22T16:40:22;16.80;1.00
8591;DHT22;4333;48.322;14.340;2024-03-22T16:42:49;16.80;1.00
8591;DHT22;4333;48.322;14.340;2024-03-22T16:45:18;16.70;1.00
8591;DHT22;4333;48.322;14.340;2024-03-22T16:47:44;16.70;1.00
8591;DHT22;4333;48.322;14.340;2024-03-22T16:50:10;16.70;1.00
8591;DHT22;4333;48.322;14.340;2024-03-22T16:52:38;16.70;1.00
8591;DHT22;4333;48.322;14.340;2024-03-22T16:55:04;16.70;1.00
8591;DHT22;4333;48.322;14.340;2024-03-22T16:57:30;16.60;1.00
8591;DHT22;4333;48.322;14.340;2024-03-22T16:59:57;16.50;1.00
8591;DHT22;4333;48.322;14.340;2024-03-22T17:02:23;16.30;1.00
8591;DHT22;4333;48.322;14.340;2024-03-22T17:04:49;16.20;1.00
8591;DHT22;4333;48.322;14.340;2024-03-22T17:07:15;16.20;1.00
8591;DHT22;4333;48.322;14.340;2024-03-22T17:09:43;16.20;1.00